Terminal Aerodrome Forecast
Issued by NWS Huntsville, AL

Home | Current Version | Previous Version | Text Only | Print | Product List | Glossary On
Versions: 1 2 3 4 5 6 7 8 9 10 11 12 13 14 15
000
FTUS44 KHUN 221153
TAFMSL
TAF
KMSL 221153Z 2212/2312 11007KT P6SM OVC015
     FM221700 11004KT P6SM SCT025 SCT250
     FM222300 VRB02KT P6SM SKC
     FM230400 VRB02KT 4SM BR SKC
      TEMPO 2308/2312 2SM BR=

USA.gov is the U.S. government's official web portal to all federal, state and local government web resources and services.